Plymouth, Massachusetts
Current Conditions -  °F | °C
As of 5:19 PM on Thursday 23 Oct 2014 (Local Time) from KPYM Reporting Station
Light Rain Light Rain  
Wind Chill: 56°   Ceiling: 400
Heat Index: 56°   Visibility: 3mi
Dew Point: 55°   Wind: 25mph
Humidity: 97%   Direction: 10°N
Pressure: 29.52"   Gusts: 35mph
Location:  41.95°N, 70.66°W
Report Text: KPYM 232119Z AUTO 01022G30KT 3SM -RA BR OVC004 13/13 A2952 RMK AO2 PK WND 36030/2112 P0002 T01330128
Loading
Personal Weather Stations






























Interactive Weather Map
Tropical Storm Tracking
New forecast layout! Learn more

10-Day Weather Forecast

Advertisements
Track Severe Weather on mobile